Welcome to Northern Hawkes Bay. New Zealand.
PWS Header
      nz Flag



Hit Counter


W3C Valid W3C Valid logo


    Wairoa

Select any of the Stations below to visit their websites.










Historic Data from Weather Underground
Select the location of interest below. Wairoa is the default. Please have patience, this Data is slow to load in.
Northern Hawkes Bay Historical Data
Daily Summary for November 21, 2017 Units:  Metric    English   Both
« Previous Day
Next Day »
Daily Weekly Monthly Yearly Custom
  High: Low: Average:
Temperature: 17.4 °C 10.8 °C 14.3 °C
Dew Point: 13.4 °C 9.8 °C 11.7 °C
Humidity: 99% 72% 85%
Wind Speed: 20.9km/h 0.0km/h 9.1km/h
Wind Gust: 29.4km/h - -
Wind- - SW
Pressure: 1022.2 hPa 1017.2 hPa -
Precipitation: 0.5 mm    
Historical Graphs
 
 
Tabular Data for November 21, 2017
Time Temperature Dew Point Pressure Wind Wind Speed Wind Gust Humidity Rainfall Rate (Hourly) solar
00:02 11.9 °C 11.6 °C 1018.2 hPa WSW 2.6 km/h 7.2 km/h 98% 0.0 mm 0 W/m2
00:07 12.0 °C 11.6 °C 1018.2 hPa WSW 11.1 km/h 15.8 km/h 97% 0.0 mm 0 W/m2
00:17 12.0 °C 11.6 °C 1018.2 hPa SW 9.7 km/h 20.9 km/h 97% 0.3 mm 0 W/m2
00:27 12.0 °C 11.6 °C 1018.2 hPa WSW 7.2 km/h 13.4 km/h 97% 0.3 mm 0 W/m2
00:32 12.0 °C 11.6 °C 1018.2 hPa West 5.0 km/h 12.2 km/h 97% 0.3 mm 0 W/m2
00:37 11.9 °C 11.6 °C 1017.8 hPa WSW 5.0 km/h 13.4 km/h 98% 0.3 mm 0 W/m2
00:42 11.9 °C 11.6 °C 1018.2 hPa WSW 1.1 km/h 13.4 km/h 98% 0.3 mm 0 W/m2
00:47 11.9 °C 11.6 °C 1018.2 hPa West 12.2 km/h 14.8 km/h 98% 0.3 mm 0 W/m2
00:52 12.0 °C 11.6 °C 1018.2 hPa West 8.7 km/h 14.8 km/h 97% 0.3 mm 0 W/m2
01:07 12.3 °C 11.8 °C 1018.2 hPa SW 3.5 km/h 14.8 km/h 97% 0.0 mm 0 W/m2
01:22 12.4 °C 11.9 °C 1017.8 hPa WSW 7.2 km/h 21.9 km/h 97% 0.0 mm 0 W/m2
01:27 12.5 °C 12.1 °C 1017.8 hPa SW 6.1 km/h 20.9 km/h 97% 0.0 mm 0 W/m2
01:42 12.7 °C 12.2 °C 1017.8 hPa SW 6.1 km/h 19.5 km/h 97% 0.0 mm 0 W/m2
01:52 12.7 °C 12.2 °C 1017.8 hPa SW 8.7 km/h 17.2 km/h 97% 0.0 mm 0 W/m2
01:57 12.7 °C 12.1 °C 1017.8 hPa SW 9.7 km/h 17.2 km/h 96% 0.0 mm 0 W/m2
02:02 12.8 °C 11.9 °C 1017.8 hPa SW 11.1 km/h 17.2 km/h 94% 0.0 mm 0 W/m2
02:07 12.9 °C 11.8 °C 1017.5 hPa SW 7.2 km/h 14.8 km/h 93% 0.0 mm 0 W/m2
02:17 13.1 °C 11.2 °C 1017.5 hPa SW 8.7 km/h 18.3 km/h 88% 0.0 mm 0 W/m2
02:22 13.2 °C 10.9 °C 1017.5 hPa WSW 7.2 km/h 17.2 km/h 86% 0.0 mm 0 W/m2
02:32 13.3 °C 10.7 °C 1017.5 hPa SW 8.7 km/h 15.8 km/h 84% 0.0 mm 0 W/m2
02:37 13.3 °C 10.3 °C 1017.5 hPa SW 17.2 km/h 21.9 km/h 82% 0.0 mm 0 W/m2
02:42 13.4 °C 10.2 °C 1017.5 hPa SW 8.7 km/h 21.9 km/h 81% 0.0 mm 0 W/m2
02:47 13.4 °C 10.2 °C 1017.5 hPa SW 13.4 km/h 21.9 km/h 81% 0.0 mm 0 W/m2
02:52 13.4 °C 10.0 °C 1017.5 hPa SW 15.8 km/h 23.3 km/h 80% 0.0 mm 0 W/m2
02:57 13.4 °C 9.8 °C 1017.5 hPa SW 6.1 km/h 23.3 km/h 79% 0.0 mm 0 W/m2
03:02 13.3 °C 9.9 °C 1017.5 hPa SW 9.7 km/h 23.3 km/h 80% 0.0 mm 0 W/m2
03:07 13.4 °C 10.0 °C 1017.2 hPa SW 8.7 km/h 17.2 km/h 80% 0.0 mm 0 W/m2
03:12 13.4 °C 10.0 °C 1017.5 hPa SW 12.2 km/h 20.9 km/h 80% 0.0 mm 0 W/m2
03:17 13.3 °C 9.9 °C 1017.5 hPa SW 11.1 km/h 20.9 km/h 80% 0.0 mm 0 W/m2
03:22 13.3 °C 10.5 °C 1017.5 hPa WSW 9.7 km/h 18.3 km/h 83% 0.0 mm 0 W/m2
03:27 13.2 °C 10.7 °C 1017.5 hPa WSW 6.1 km/h 18.3 km/h 85% 0.0 mm 0 W/m2
03:32 13.2 °C 10.7 °C 1017.5 hPa WSW 9.7 km/h 18.3 km/h 85% 0.0 mm 0 W/m2
03:37 13.1 °C 10.8 °C 1017.5 hPa WSW 7.2 km/h 19.5 km/h 86% 0.0 mm 0 W/m2
03:42 13.0 °C 10.7 °C 1017.2 hPa WSW 6.1 km/h 19.5 km/h 86% 0.0 mm 0 W/m2
03:47 13.0 °C 10.7 °C 1017.5 hPa WSW 6.1 km/h 19.5 km/h 86% 0.0 mm 0 W/m2
03:52 13.0 °C 10.9 °C 1017.2 hPa WSW 11.1 km/h 19.5 km/h 87% 0.0 mm 0 W/m2
03:57 12.9 °C 10.6 °C 1017.2 hPa WSW 11.1 km/h 19.5 km/h 86% 0.0 mm 0 W/m2
04:07 12.9 °C 10.6 °C 1017.5 hPa WSW 12.2 km/h 17.2 km/h 86% 0.0 mm 0 W/m2
04:12 12.8 °C 10.7 °C 1017.2 hPa WSW 3.5 km/h 18.3 km/h 87% 0.0 mm 0 W/m2
04:17 12.7 °C 10.6 °C 1017.5 hPa WSW 13.4 km/h 18.3 km/h 87% 0.0 mm 0 W/m2
04:22 12.7 °C 10.8 °C 1017.5 hPa WSW 13.4 km/h 19.5 km/h 88% 0.0 mm 0 W/m2
04:27 12.6 °C 10.8 °C 1017.2 hPa WSW 9.7 km/h 20.9 km/h 89% 0.0 mm 0 W/m2
04:32 12.5 °C 10.9 °C 1017.5 hPa WSW 17.2 km/h 21.9 km/h 90% 0.0 mm 0 W/m2
04:42 12.3 °C 10.9 °C 1017.2 hPa West 5.0 km/h 23.3 km/h 91% 0.0 mm 0 W/m2
04:47 12.2 °C 10.9 °C 1017.5 hPa West 6.1 km/h 15.8 km/h 92% 0.0 mm 0 W/m2
04:57 12.0 °C 10.7 °C 1017.2 hPa WNW 3.5 km/h 11.1 km/h 92% 0.0 mm 0 W/m2
05:02 11.9 °C 10.8 °C 1017.5 hPa NW 3.5 km/h 7.2 km/h 93% 0.0 mm 0 W/m2
05:07 11.6 °C 10.7 °C 1017.5 hPa Calm   8.7 km/h 94% 0.0 mm 0 W/m2
05:17 11.4 °C 10.6 °C 1017.5 hPa Calm   6.1 km/h 95% 0.0 mm 0 W/m2
05:22 11.3 °C 10.7 °C 1017.5 hPa NW 1.1 km/h 6.1 km/h 96% 0.0 mm 0 W/m2
05:27 11.1 °C 10.7 °C 1017.5 hPa NW 3.5 km/h 6.1 km/h 97% 0.0 mm 0 W/m2
05:37 11.0 °C 10.7 °C 1017.5 hPa NW 2.6 km/h 7.2 km/h 98% 0.0 mm 0 W/m2
05:47 10.8 °C 10.7 °C 1017.5 hPa NNW 1.1 km/h 7.2 km/h 99% 0.0 mm 0 W/m2
05:52 10.8 °C 10.7 °C 1017.5 hPa NNW 5.0 km/h 7.2 km/h 99% 0.0 mm 0 W/m2
06:16 10.8 °C 10.7 °C 1017.8 hPa NNW 6.1 km/h 9.7 km/h 99% 0.0 mm 2 W/m2
06:21 10.8 °C 10.7 °C 1017.5 hPa NW 5.0 km/h 8.7 km/h 99% 0.0 mm 4 W/m2
06:26 11.0 °C 10.7 °C 1017.8 hPa NW 6.1 km/h 8.7 km/h 98% 0.0 mm 7 W/m2
06:31 11.0 °C 10.7 °C 1017.8 hPa NW 2.6 km/h 8.7 km/h 98% 0.0 mm 11 W/m2
06:36 11.0 °C 10.7 °C 1017.8 hPa NW 1.1 km/h 8.7 km/h 98% 0.0 mm 19 W/m2
06:41 11.2 °C 10.9 °C 1017.8 hPa Calm   8.7 km/h 98% 0.0 mm 19 W/m2
06:46 11.3 °C 11.0 °C 1017.8 hPa WSW 1.1 km/h 6.1 km/h 98% 0.0 mm 21 W/m2
06:51 11.5 °C 11.2 °C 1017.8 hPa WSW 3.5 km/h 12.2 km/h 98% 0.0 mm 34 W/m2
06:56 11.7 °C 11.4 °C 1017.8 hPa West 1.1 km/h 12.2 km/h 98% 0.0 mm 49 W/m2
07:01 11.8 °C 11.5 °C 1017.5 hPa WNW 2.6 km/h 11.1 km/h 98% 0.3 mm 54 W/m2
07:06 11.9 °C 11.6 °C 1017.8 hPa NW 5.0 km/h 7.2 km/h 98% 0.3 mm 54 W/m2
07:11 11.8 °C 11.5 °C 1017.8 hPa NW 5.0 km/h 8.7 km/h 98% 0.3 mm 61 W/m2
07:17 11.8 °C 11.5 °C 1018.2 hPa NW 3.5 km/h 13.4 km/h 98% 0.3 mm 69 W/m2
07:18 11.8 °C 11.5 °C 1017.8 hPa NNW 5.0 km/h 13.4 km/h 98% 0.3 mm 69 W/m2
07:23 11.8 °C 11.5 °C 1018.2 hPa NW 5.0 km/h 13.4 km/h 98% 0.3 mm 74 W/m2
07:28 11.9 °C 11.6 °C 1018.2 hPa NW 3.5 km/h 9.7 km/h 98% 0.3 mm 75 W/m2
07:38 12.0 °C 11.6 °C 1017.8 hPa NW 6.1 km/h 12.2 km/h 97% 0.3 mm 82 W/m2
07:43 12.1 °C 11.7 °C 1018.2 hPa NW 3.5 km/h 8.7 km/h 97% 0.3 mm 75 W/m2
07:48 12.3 °C 11.8 °C 1018.2 hPa Calm   8.7 km/h 97% 0.3 mm 63 W/m2
07:53 12.4 °C 11.8 °C 1018.2 hPa WSW 3.5 km/h 18.3 km/h 96% 0.3 mm 63 W/m2
08:08 12.8 °C 11.7 °C 1018.5 hPa WSW 12.2 km/h 19.5 km/h 93% 0.0 mm 107 W/m2
08:18 13.0 °C 11.7 °C 1018.5 hPa WSW 11.1 km/h 21.9 km/h 92% 0.0 mm 127 W/m2
08:23 13.2 °C 11.6 °C 1018.2 hPa WSW 13.4 km/h 21.9 km/h 90% 0.0 mm 137 W/m2
08:28 13.4 °C 11.6 °C 1018.2 hPa WSW 6.1 km/h 18.3 km/h 89% 0.0 mm 133 W/m2
08:33 13.5 °C 11.7 °C 1018.2 hPa WSW 6.1 km/h 15.8 km/h 89% 0.0 mm 153 W/m2
08:38 13.7 °C 11.8 °C 1018.5 hPa WSW 11.1 km/h 17.2 km/h 88% 0.0 mm 152 W/m2
08:48 13.7 °C 11.6 °C 1018.2 hPa WSW 8.7 km/h 19.5 km/h 87% 0.0 mm 150 W/m2
09:09 14.1 °C 11.4 °C 1018.8 hPa WSW 11.1 km/h 17.2 km/h 84% 0.0 mm 125 W/m2
09:14 13.9 °C 11.2 °C 1018.5 hPa WSW 9.7 km/h 21.9 km/h 84% 0.0 mm 115 W/m2
09:29 13.8 °C 11.3 °C 1018.8 hPa WSW 7.2 km/h 28.0 km/h 85% 0.0 mm 176 W/m2
09:39 14.3 °C 11.4 °C 1018.8 hPa SW 13.4 km/h 25.6 km/h 83% 0.0 mm 193 W/m2
09:44 14.3 °C 11.1 °C 1018.8 hPa SW 11.1 km/h 21.9 km/h 81% 0.0 mm 215 W/m2
09:49 14.6 °C 11.2 °C 1018.8 hPa SW 12.2 km/h 19.5 km/h 80% 0.0 mm 216 W/m2
09:54 14.9 °C 11.3 °C 1018.8 hPa SW 13.4 km/h 24.5 km/h 79% 0.0 mm 245 W/m2
09:59 14.9 °C 10.9 °C 1018.8 hPa SW 12.2 km/h 24.5 km/h 77% 0.0 mm 205 W/m2
10:04 14.9 °C 10.7 °C 1018.8 hPa SW 8.7 km/h 23.3 km/h 76% 0.0 mm 201 W/m2
10:09 14.9 °C 10.9 °C 1018.8 hPa SW 17.2 km/h 23.3 km/h 77% 0.0 mm 196 W/m2
10:14 14.4 °C 10.4 °C 1018.8 hPa SW 8.7 km/h 23.3 km/h 77% 0.0 mm 217 W/m2
10:19 14.7 °C 10.7 °C 1018.8 hPa SW 9.7 km/h 23.3 km/h 77% 0.0 mm 303 W/m2
10:24 15.3 °C 11.3 °C 1018.8 hPa SW 13.4 km/h 20.9 km/h 77% 0.0 mm 440 W/m2
10:34 15.5 °C 10.9 °C 1018.8 hPa SW 12.2 km/h 24.5 km/h 74% 0.0 mm 317 W/m2
10:39 15.4 °C 11.0 °C 1019.2 hPa SW 15.8 km/h 24.5 km/h 75% 0.0 mm 285 W/m2
10:44 15.2 °C 11.0 °C 1019.2 hPa SW 9.7 km/h 23.3 km/h 76% 0.0 mm 265 W/m2
10:49 15.4 °C 11.6 °C 1019.2 hPa SW 11.1 km/h 23.3 km/h 78% 0.0 mm 290 W/m2
10:54 15.5 °C 11.3 °C 1019.2 hPa SW 12.2 km/h 19.5 km/h 76% 0.0 mm 299 W/m2
10:59 15.6 °C 11.2 °C 1019.2 hPa SW 14.8 km/h 19.5 km/h 75% 0.0 mm 323 W/m2
11:04 15.6 °C 11.2 °C 1019.2 hPa WSW 12.2 km/h 19.5 km/h 75% 0.0 mm 378 W/m2
11:09 15.7 °C 11.1 °C 1019.2 hPa SW 14.8 km/h 20.9 km/h 74% 0.0 mm 344 W/m2
11:14 15.6 °C 10.8 °C 1019.2 hPa SW 17.2 km/h 25.6 km/h 73% 0.0 mm 283 W/m2
11:19 15.6 °C 11.2 °C 1019.2 hPa WSW 12.2 km/h 25.6 km/h 75% 0.0 mm 257 W/m2
11:24 15.6 °C 11.0 °C 1019.2 hPa SW 12.2 km/h 23.3 km/h 74% 0.0 mm 293 W/m2
11:29 15.9 °C 11.3 °C 1019.2 hPa SW 13.4 km/h 23.3 km/h 74% 0.0 mm 357 W/m2
11:34 15.9 °C 11.1 °C 1019.2 hPa SW 15.8 km/h 24.5 km/h 73% 0.0 mm 570 W/m2
11:44 16.4 °C 11.3 °C 1019.5 hPa SSW 20.9 km/h 23.3 km/h 72% 0.0 mm 281 W/m2
11:49 15.8 °C 11.0 °C 1019.5 hPa SW 8.7 km/h 23.3 km/h 73% 0.0 mm 307 W/m2
11:59 16.1 °C 11.4 °C 1019.2 hPa WSW 12.2 km/h 24.5 km/h 74% 0.0 mm 401 W/m2
12:04 16.3 °C 11.7 °C 1019.2 hPa SW 7.2 km/h 21.9 km/h 74% 0.0 mm 395 W/m2
12:09 16.4 °C 11.6 °C 1019.5 hPa WSW 12.2 km/h 21.9 km/h 73% 0.0 mm 377 W/m2
12:14 16.3 °C 11.4 °C 1019.5 hPa WSW 13.4 km/h 23.3 km/h 73% 0.0 mm 393 W/m2
12:19 16.4 °C 11.6 °C 1019.5 hPa SW 12.2 km/h 23.3 km/h 73% 0.0 mm 463 W/m2
12:29 16.5 °C 11.4 °C 1019.5 hPa SW 13.4 km/h 24.5 km/h 72% 0.0 mm 559 W/m2
12:39 16.5 °C 11.7 °C 1019.5 hPa WSW 6.1 km/h 25.6 km/h 73% 0.0 mm 330 W/m2
12:44 16.5 °C 11.7 °C 1019.5 hPa WSW 9.7 km/h 23.3 km/h 73% 0.0 mm 226 W/m2
12:49 16.2 °C 11.4 °C 1019.5 hPa SW 15.8 km/h 28.0 km/h 73% 0.0 mm 217 W/m2
12:54 15.7 °C 11.9 °C 1019.5 hPa SSW 11.1 km/h 28.0 km/h 78% 0.0 mm 278 W/m2
12:59 15.7 °C 11.9 °C 1019.5 hPa SW 12.2 km/h 28.0 km/h 78% 0.0 mm 396 W/m2
13:04 15.8 °C 12.2 °C 1019.5 hPa SSW 11.1 km/h 28.0 km/h 79% 0.0 mm 340 W/m2
13:09 15.6 °C 12.3 °C 1019.5 hPa SSW 12.2 km/h 24.5 km/h 81% 0.0 mm 394 W/m2
13:23 15.9 °C 12.7 °C 1019.5 hPa SW 11.1 km/h 19.5 km/h 81% 0.0 mm 307 W/m2
13:30 16.2 °C 12.8 °C 1019.9 hPa SSW 13.4 km/h 19.5 km/h 80% 0.0 mm 408 W/m2
13:34 16.3 °C 12.4 °C 1019.5 hPa SW 8.7 km/h 23.3 km/h 78% 0.0 mm 450 W/m2
13:37 16.3 °C 12.3 °C 1019.5 hPa SW 13.4 km/h 23.3 km/h 77% 0.0 mm 506 W/m2
13:43 16.8 °C 12.6 °C 1019.5 hPa SW 13.4 km/h 23.3 km/h 76% 0.0 mm 446 W/m2
13:58 15.4 °C 12.9 °C 1019.5 hPa South 18.3 km/h 24.5 km/h 85% 0.0 mm 332 W/m2
14:08 15.7 °C 13.2 °C 1019.5 hPa SSW 19.5 km/h 29.4 km/h 85% 0.0 mm 424 W/m2
14:13 16.1 °C 13.2 °C 1019.5 hPa SSW 15.8 km/h 28.0 km/h 83% 0.0 mm 478 W/m2
14:18 16.3 °C 13.2 °C 1019.5 hPa SSW 8.7 km/h 28.0 km/h 82% 0.0 mm 441 W/m2
14:23 16.6 °C 12.9 °C 1019.9 hPa SSW 8.7 km/h 23.3 km/h 79% 0.0 mm 476 W/m2
14:28 17.1 °C 13.1 °C 1019.9 hPa SSW 11.1 km/h 23.3 km/h 77% 0.0 mm 581 W/m2
14:33 17.4 °C 13.3 °C 1019.9 hPa SSW 7.2 km/h 19.5 km/h 77% 0.0 mm 413 W/m2
14:38 17.1 °C 13.1 °C 1019.9 hPa SSW 8.7 km/h 23.3 km/h 77% 0.0 mm 361 W/m2
14:43 16.6 °C 13.2 °C 1019.9 hPa SSW 15.8 km/h 23.3 km/h 80% 0.0 mm 326 W/m2
14:48 16.0 °C 12.9 °C 1019.9 hPa SSW 18.3 km/h 28.0 km/h 82% 0.0 mm 371 W/m2
14:53 16.0 °C 13.1 °C 1020.2 hPa SSW 18.3 km/h 28.0 km/h 83% 0.0 mm 358 W/m2
15:03 16.5 °C 13.4 °C 1020.2 hPa SSW 9.7 km/h 27.0 km/h 82% 0.0 mm 578 W/m2
15:09 16.6 °C 12.9 °C 1019.9 hPa SSW 14.8 km/h 27.0 km/h 79% 0.0 mm 325 W/m2
15:14 16.4 °C 12.8 °C 1019.9 hPa SSW 12.2 km/h 24.5 km/h 79% 0.0 mm 301 W/m2
15:19 16.2 °C 12.4 °C 1019.9 hPa SSW 11.1 km/h 23.3 km/h 78% 0.0 mm 339 W/m2
15:24 16.5 °C 12.8 °C 1019.9 hPa SSW 11.1 km/h 20.9 km/h 79% 0.0 mm 289 W/m2
15:29 16.6 °C 12.9 °C 1020.2 hPa SSW 13.4 km/h 20.9 km/h 79% 0.0 mm 352 W/m2
15:34 16.6 °C 12.6 °C 1019.9 hPa SW 11.1 km/h 21.9 km/h 77% 0.0 mm 282 W/m2
15:44 16.5 °C 12.7 °C 1019.9 hPa SSW 11.1 km/h 24.5 km/h 78% 0.0 mm 262 W/m2
15:49 16.6 °C 12.8 °C 1020.2 hPa SSW 13.4 km/h 24.5 km/h 78% 0.0 mm 261 W/m2
15:54 16.4 °C 12.2 °C 1019.9 hPa SSW 11.1 km/h 21.9 km/h 76% 0.0 mm 245 W/m2
15:59 16.4 °C 12.8 °C 1020.2 hPa SSW 13.4 km/h 21.9 km/h 79% 0.0 mm 225 W/m2
16:04 16.3 °C 12.4 °C 1019.9 hPa South 5.0 km/h 20.9 km/h 78% 0.0 mm 245 W/m2
16:09 16.3 °C 12.7 °C 1020.2 hPa SSW 13.4 km/h 20.9 km/h 79% 0.0 mm 208 W/m2
16:16 16.1 °C 12.4 °C 1020.2 hPa SSW 12.2 km/h 19.5 km/h 79% 0.0 mm 229 W/m2
16:22 16.2 °C 12.6 °C 1019.9 hPa South 11.1 km/h 18.3 km/h 79% 0.0 mm 177 W/m2
16:27 16.2 °C 12.9 °C 1020.2 hPa South 8.7 km/h 18.3 km/h 81% 0.0 mm 178 W/m2
16:32 16.1 °C 12.8 °C 1020.2 hPa South 12.2 km/h 19.5 km/h 81% 0.0 mm 228 W/m2
16:42 16.0 °C 11.8 °C 1019.9 hPa SSW 14.8 km/h 23.3 km/h 76% 0.0 mm 210 W/m2
16:47 16.0 °C 12.0 °C 1019.9 hPa South 17.2 km/h 23.3 km/h 77% 0.0 mm 190 W/m2
16:51 16.1 °C 12.1 °C 1019.9 hPa SSW 7.2 km/h 20.9 km/h 77% 0.0 mm 178 W/m2
16:56 16.1 °C 12.3 °C 1019.9 hPa SSW 13.4 km/h 24.5 km/h 78% 0.0 mm 195 W/m2
16:57 16.0 °C 12.0 °C 1019.9 hPa SSW 11.1 km/h 24.5 km/h 77% 0.0 mm 201 W/m2
17:02 15.9 °C 12.3 °C 1019.9 hPa South 11.1 km/h 24.5 km/h 79% 0.0 mm 183 W/m2
17:07 15.8 °C 12.2 °C 1019.9 hPa South 17.2 km/h 23.3 km/h 79% 0.0 mm 154 W/m2
17:22 15.7 °C 11.7 °C 1020.2 hPa South 18.3 km/h 25.6 km/h 77% 0.0 mm 154 W/m2
17:27 15.7 °C 12.1 °C 1019.9 hPa South 14.8 km/h 25.6 km/h 79% 0.0 mm 209 W/m2
17:32 15.7 °C 12.1 °C 1019.9 hPa South 11.1 km/h 25.6 km/h 79% 0.0 mm 143 W/m2
17:37 15.8 °C 12.4 °C 1020.2 hPa South 15.8 km/h 23.3 km/h 80% 0.0 mm 232 W/m2
17:42 16.4 °C 12.6 °C 1019.9 hPa South 17.2 km/h 28.0 km/h 78% 0.0 mm 239 W/m2
17:52 15.8 °C 12.2 °C 1020.2 hPa SSW 6.1 km/h 25.6 km/h 79% 0.0 mm 135 W/m2
17:57 16.2 °C 12.6 °C 1019.9 hPa South 13.4 km/h 23.3 km/h 79% 0.0 mm 157 W/m2
18:02 16.2 °C 12.8 °C 1020.2 hPa South 15.8 km/h 20.9 km/h 80% 0.0 mm 275 W/m2
18:07 16.6 °C 12.6 °C 1020.2 hPa South 11.1 km/h 20.9 km/h 77% 0.0 mm 243 W/m2
18:12 16.8 °C 12.6 °C 1020.2 hPa South 9.7 km/h 19.5 km/h 76% 0.0 mm 204 W/m2
18:17 16.8 °C 12.3 °C 1020.2 hPa South 6.1 km/h 17.2 km/h 75% 0.0 mm 142 W/m2
18:22 16.5 °C 11.8 °C 1020.2 hPa SSW 3.5 km/h 15.8 km/h 74% 0.0 mm 124 W/m2
18:27 16.1 °C 11.9 °C 1020.2 hPa SSW 8.7 km/h 15.8 km/h 76% 0.0 mm 99 W/m2
18:37 15.3 °C 12.6 °C 1020.5 hPa South 7.2 km/h 19.5 km/h 84% 0.0 mm 71 W/m2
18:42 15.1 °C 12.6 °C 1020.2 hPa South 7.2 km/h 19.5 km/h 85% 0.0 mm 79 W/m2
18:47 15.1 °C 12.6 °C 1020.5 hPa South 7.2 km/h 19.5 km/h 85% 0.0 mm 84 W/m2
18:52 15.2 °C 12.7 °C 1020.2 hPa South 11.1 km/h 14.8 km/h 85% 0.0 mm 77 W/m2
18:57 15.1 °C 12.4 °C 1020.5 hPa South 5.0 km/h 14.8 km/h 84% 0.0 mm 50 W/m2
19:12 14.8 °C 12.7 °C 1020.9 hPa South 5.0 km/h 14.8 km/h 87% 0.0 mm 33 W/m2
19:17 14.8 °C 12.8 °C 1020.5 hPa South 6.1 km/h 12.2 km/h 88% 0.0 mm 31 W/m2
19:27 14.6 °C 12.7 °C 1020.9 hPa South 6.1 km/h 12.2 km/h 88% 0.0 mm 25 W/m2
19:32 14.6 °C 12.7 °C 1020.5 hPa South 6.1 km/h 9.7 km/h 88% 0.0 mm 20 W/m2
19:37 14.6 °C 12.7 °C 1020.9 hPa South 5.0 km/h 9.7 km/h 88% 0.0 mm 13 W/m2
19:42 14.5 °C 12.6 °C 1020.9 hPa South 2.6 km/h 8.7 km/h 88% 0.0 mm 6 W/m2
20:11 14.4 °C 12.6 °C 1020.9 hPa SSW 6.1 km/h 11.1 km/h 89% 0.0 mm 0 W/m2
20:16 14.4 °C 12.4 °C 1020.9 hPa SSW 5.0 km/h 11.1 km/h 88% 0.0 mm 0 W/m2
20:21 14.4 °C 12.3 °C 1020.9 hPa SSW 8.7 km/h 12.2 km/h 87% 0.0 mm 0 W/m2
20:26 14.5 °C 12.4 °C 1020.9 hPa SSW 3.5 km/h 12.2 km/h 87% 0.0 mm 0 W/m2
20:31 14.5 °C 12.4 °C 1020.9 hPa South 5.0 km/h 12.2 km/h 87% 0.0 mm 0 W/m2
20:41 14.4 °C 12.3 °C 1020.9 hPa South 2.6 km/h 9.7 km/h 87% 0.0 mm 0 W/m2
20:56 14.5 °C 12.4 °C 1021.2 hPa South 5.0 km/h 8.7 km/h 87% 0.0 mm 0 W/m2
21:01 14.5 °C 12.4 °C 1021.2 hPa SSW 7.2 km/h 8.7 km/h 87% 0.0 mm 0 W/m2
21:11 14.5 °C 12.4 °C 1021.6 hPa SSW 9.7 km/h 13.4 km/h 87% 0.0 mm 0 W/m2
21:26 14.5 °C 12.4 °C 1021.6 hPa SSW 7.2 km/h 13.4 km/h 87% 0.0 mm 0 W/m2
21:31 14.6 °C 12.4 °C 1021.6 hPa SSW 9.7 km/h 17.2 km/h 87% 0.0 mm 0 W/m2
21:36 14.5 °C 12.4 °C 1021.6 hPa SSW 5.0 km/h 17.2 km/h 87% 0.0 mm 0 W/m2
21:46 14.5 °C 12.4 °C 1021.9 hPa SSW 6.1 km/h 14.8 km/h 87% 0.0 mm 0 W/m2
21:51 14.5 °C 12.2 °C 1021.9 hPa SW 11.1 km/h 17.2 km/h 86% 0.0 mm 0 W/m2
21:56 14.5 °C 12.2 °C 1021.9 hPa SSW 12.2 km/h 17.2 km/h 86% 0.0 mm 0 W/m2
22:01 14.5 °C 12.2 °C 1021.9 hPa SW 12.2 km/h 20.9 km/h 86% 0.0 mm 0 W/m2
22:06 14.6 °C 12.3 °C 1021.9 hPa SSW 6.1 km/h 20.9 km/h 86% 0.0 mm 0 W/m2
22:16 14.6 °C 11.9 °C 1021.9 hPa South 5.0 km/h 20.9 km/h 84% 0.0 mm 0 W/m2
22:21 14.6 °C 11.6 °C 1021.9 hPa South 5.0 km/h 20.9 km/h 82% 0.0 mm 0 W/m2
22:26 14.6 °C 11.4 °C 1021.9 hPa SSW 7.2 km/h 13.4 km/h 81% 0.0 mm 0 W/m2
22:31 14.6 °C 11.6 °C 1021.9 hPa SSW 7.2 km/h 13.4 km/h 82% 0.0 mm 0 W/m2
22:36 14.6 °C 11.6 °C 1021.9 hPa SSW 2.6 km/h 13.4 km/h 82% 0.0 mm 0 W/m2
22:41 14.6 °C 11.6 °C 1021.9 hPa SSW 9.7 km/h 13.4 km/h 82% 0.0 mm 0 W/m2
22:46 14.6 °C 11.4 °C 1021.9 hPa South 8.7 km/h 13.4 km/h 81% 0.0 mm 0 W/m2
22:56 14.6 °C 11.4 °C 1021.9 hPa South 6.1 km/h 15.8 km/h 81% 0.0 mm 0 W/m2
23:01 14.6 °C 11.4 °C 1021.9 hPa South 8.7 km/h 11.1 km/h 81% 0.0 mm 0 W/m2
23:11 14.6 °C 11.9 °C 1021.9 hPa SSW 7.2 km/h 15.8 km/h 84% 0.0 mm 0 W/m2
23:21 14.5 °C 12.0 °C 1022.2 hPa SSW 8.7 km/h 14.8 km/h 85% 0.0 mm 0 W/m2
23:26 14.5 °C 12.0 °C 1021.9 hPa SSW 9.7 km/h 14.8 km/h 85% 0.0 mm 0 W/m2
23:36 14.4 °C 11.9 °C 1022.2 hPa SSW 5.0 km/h 14.8 km/h 85% 0.0 mm 0 W/m2
23:41 14.4 °C 11.9 °C 1021.9 hPa SSW 3.5 km/h 12.2 km/h 85% 0.0 mm 0 W/m2
23:46 14.4 °C 11.9 °C 1021.9 hPa SSW 2.6 km/h 9.7 km/h 85% 0.0 mm 0 W/m2
23:51 14.4 °C 11.9 °C 1021.9 hPa SSW 6.1 km/h 9.7 km/h 85% 0.0 mm 0 W/m2
Northern Hawkes Bay. New Zealand Historic Data
Compliments of Weather Underground - 2 mb